Time;durP1;ratioP1;P1;durP2;ratioP2;P2;SDS_P1;SDS_P2;PMS_P1;PMS_P2;Temp;Humidity;BMP_temperature;BMP_pressure;BME280_temperature;BME280_humidity;BME280_pressure;Samples;Min_cycle;Max_cycle;Signal;HPM_P1;HPM_P2
2022/01/23 00:00:44;;;;;;;44.80;27.95;;;;;;;4.66;94.31;103568.06;4767343;30;20476;-77
2022/01/23 00:03:16;;;;;;;44.55;27.52;;;;;;;4.67;94.16;103572.31;4767455;30;20119;-77
2022/01/23 00:05:44;;;;;;;45.55;28.42;;;;;;;4.49;93.90;103539.81;4767591;30;20036;-77
2022/01/23 00:08:12;;;;;;;47.50;27.73;;;;;;;4.64;93.94;103554.41;4767605;30;20040;-77
2022/01/23 00:10:38;;;;;;;43.95;26.70;;;;;;;4.67;94.14;103559.53;4767389;30;20074;-77
2022/01/23 00:13:11;;;;;;;44.15;28.20;;;;;;;4.66;94.05;103563.78;4767113;30;20031;-77
2022/01/23 00:18:21;;;;;;;45.85;27.00;;;;;;;4.66;94.04;103556.13;4791278;30;20859;-77
2022/01/23 00:20:48;;;;;;;44.80;27.35;;;;;;;4.61;94.18;103552.66;4791103;30;20035;-77
2022/01/23 00:23:34;;;;;;;43.40;27.23;;;;;;;4.59;93.90;103551.81;4790735;30;20035;-76
2022/01/23 00:31:29;;;;;;;49.85;28.45;;;;;;;4.49;94.20;103529.56;4791077;30;20671;-77
2022/01/23 00:33:56;;;;;;;43.30;26.85;;;;;;;4.62;94.32;103549.25;4790799;30;20035;-77
2022/01/23 00:36:23;;;;;;;45.17;25.77;;;;;;;4.58;93.92;103547.53;4790828;30;20088;-78
2022/01/23 00:38:49;;;;;;;42.95;26.42;;;;;;;4.54;93.97;103538.13;4789787;30;20024;-77
2022/01/23 00:41:14;;;;;;;44.60;26.10;;;;;;;4.57;93.83;103545.81;4790560;30;20031;-77
2022/01/23 00:43:42;;;;;;;43.80;26.08;;;;;;;4.47;93.73;103532.13;4790487;29;20039;-77
2022/01/23 00:46:48;;;;;;;42.88;26.67;;;;;;;3.80;94.05;103421.72;4842394;24;20025;-76
2022/01/23 00:49:24;;;;;;;43.47;25.50;;;;;;;3.71;94.18;103414.84;4772505;30;20048;-77
2022/01/23 00:58:48;;;;;;;43.30;25.30;;;;;;;4.49;94.07;103519.34;4770142;30;20040;-77
2022/01/23 01:01:17;;;;;;;43.58;26.10;;;;;;;4.60;93.89;103535.59;4770223;30;20046;-77
2022/01/23 01:07:42;;;;;;;41.80;26.10;;;;;;;3.36;93.55;103332.03;4808821;29;20058;-77
2022/01/23 01:10:14;;;;;;;41.63;25.58;;;;;;;4.59;93.66;103539.00;4808507;29;20035;-77
2022/01/23 01:12:43;;;;;;;39.33;24.30;;;;;;;4.56;93.42;103539.84;4808592;29;20079;-77
2022/01/23 01:15:28;;;;;;;41.65;25.90;;;;;;;4.43;93.26;103514.19;4806728;29;20125;-78
2022/01/23 01:31:29;;;;;;;39.28;24.08;;;;;;;4.61;93.72;103547.53;4826368;29;20107;-78
2022/01/23 01:34:02;;;;;;;39.65;24.30;;;;;;;4.63;93.78;103540.75;4826186;29;20482;-78
2022/01/23 01:38:59;;;;;;;38.45;24.58;;;;;;;4.64;93.65;103542.47;4826022;29;20066;-79
2022/01/23 01:41:26;;;;;;;39.08;24.75;;;;;;;4.55;93.50;103540.72;4826028;29;20496;-78
2022/01/23 01:43:53;;;;;;;40.25;24.05;;;;;;;4.64;93.95;103555.25;4809759;29;20562;-78
2022/01/23 01:46:19;;;;;;;37.75;24.40;;;;;;;4.67;93.65;103562.09;4825890;29;20101;-78
2022/01/23 01:48:44;;;;;;;39.85;24.73;;;;;;;4.51;93.30;103532.97;4825772;29;20391;-78
2022/01/23 01:51:14;;;;;;;40.53;25.08;;;;;;;4.57;93.49;103545.81;4825566;29;20046;-78
2022/01/23 01:53:46;;;;;;;37.63;23.55;;;;;;;4.50;93.07;103551.75;4809264;29;20023;-78
2022/01/23 01:56:11;;;;;;;40.92;25.63;;;;;;;4.50;93.31;103542.38;4809410;29;20130;-78
2022/01/23 02:01:11;;;;;;;40.03;23.90;;;;;;;4.51;93.61;103545.78;4825617;29;20433;-78
2022/01/23 02:12:04;;;;;;;37.13;22.88;;;;;;;3.49;93.71;103377.22;4775032;27;20436;-78
2022/01/23 02:54:46;;;;;;;44.83;26.73;;;;;;;4.53;94.09;103509.13;4788631;30;20039;-77
2022/01/23 02:57:19;;;;;;;37.42;24.20;;;;;;;4.51;93.92;103510.81;4788604;30;20031;-78
2022/01/23 02:59:45;;;;;;;40.03;23.45;;;;;;;4.54;93.81;103518.53;4788391;30;20032;-77
2022/01/23 03:04:47;;;;;;;42.83;23.67;;;;;;;4.56;94.16;103515.97;4788397;30;20040;-78
2022/01/23 03:09:58;;;;;;;34.63;21.25;;;;;;;4.60;94.08;103512.56;4788335;30;20054;-78
2022/01/23 03:26:32;;;;;;;34.10;20.33;;;;;;;4.56;93.63;103532.19;4732976;30;20047;-77
2022/01/23 03:34:17;;;;;;;34.92;21.08;;;;;;;4.50;93.44;103524.44;4732681;30;20044;-78
2022/01/23 03:36:43;;;;;;;35.97;22.33;;;;;;;4.57;93.88;103530.47;4732544;30;20198;-78
2022/01/23 03:39:10;;;;;;;38.80;21.30;;;;;;;4.56;93.88;103527.06;4732652;30;20506;-78
2022/01/23 03:41:38;;;;;;;34.75;21.80;;;;;;;4.56;93.78;103536.44;4732534;30;20052;-77
2022/01/23 03:44:06;;;;;;;35.75;21.25;;;;;;;4.58;93.86;103537.31;4732884;30;20112;-78
2022/01/23 03:47:00;;;;;;;35.58;20.25;;;;;;;4.58;93.77;103534.75;4732511;30;20052;-78
2022/01/23 03:49:32;;;;;;;37.20;21.30;;;;;;;4.44;93.59;103511.66;4732003;30;20145;-77
2022/01/23 03:52:06;;;;;;;35.55;21.33;;;;;;;4.54;93.84;103527.91;4740212;30;20486;-78
2022/01/23 03:54:33;;;;;;;35.50;20.17;;;;;;;4.56;93.97;103539.00;4765633;29;20126;-78
2022/01/23 03:57:01;;;;;;;34.65;20.38;;;;;;;4.56;94.39;103537.28;4805735;29;20023;-78
2022/01/23 03:59:27;;;;;;;34.22;20.15;;;;;;;4.41;93.96;103526.97;4805734;29;20059;-79
2022/01/23 04:01:53;;;;;;;32.72;20.52;;;;;;;4.50;93.80;103536.38;4805433;29;20484;-78
2022/01/23 04:06:56;;;;;;;33.63;20.80;;;;;;;4.49;93.94;103534.69;4805847;29;20034;-79
2022/01/23 04:09:21;;;;;;;34.83;20.55;;;;;;;4.53;94.09;103544.09;4805572;29;20175;-78
2022/01/23 04:11:47;;;;;;;35.50;20.77;;;;;;;4.48;94.22;103538.94;4867317;24;20056;-78
2022/01/23 04:14:15;;;;;;;35.33;20.80;;;;;;;4.41;93.75;103521.00;4895415;24;20089;-78
2022/01/23 04:59:55;;;;;;;35.63;21.27;;;;;;;4.45;94.44;103553.44;4767440;30;20093;-78
2022/01/23 05:05:06;;;;;;;40.67;22.20;;;;;;;4.49;94.48;103544.91;4770472;30;20054;-79
2022/01/23 05:07:32;;;;;;;35.72;21.20;;;;;;;4.47;94.21;103551.75;4755482;30;20043;-78
2022/01/23 05:09:57;;;;;;;39.83;22.10;;;;;;;4.44;94.51;103541.50;4770362;30;20568;-78
2022/01/23 05:12:26;;;;;;;40.95;22.02;;;;;;;4.44;94.26;103539.78;4770160;30;20177;-78
2022/01/23 05:32:40;;;;;;;34.67;21.08;;;;;;;4.41;94.58;103567.03;4770560;30;20493;-78
2022/01/23 05:35:08;;;;;;;36.95;21.45;;;;;;;4.41;94.26;103567.91;4772008;30;20040;-78
2022/01/23 05:37:34;;;;;;;35.33;20.85;;;;;;;4.40;94.67;103555.94;4771956;30;20036;-78
2022/01/23 05:39:59;;;;;;;38.97;22.48;;;;;;;4.40;94.39;103555.94;4771981;30;20378;-78
2022/01/23 05:42:25;;;;;;;35.28;22.48;;;;;;;4.41;94.24;103567.91;4771912;30;20036;-78
2022/01/23 05:44:51;;;;;;;36.83;22.48;;;;;;;4.38;94.57;103557.66;4771772;30;20071;-78
2022/01/23 05:47:16;;;;;;;37.72;21.80;;;;;;;4.20;94.30;103524.28;4755634;30;20481;-78
2022/01/23 05:49:41;;;;;;;36.00;21.20;;;;;;;4.29;94.67;103547.34;4771847;30;20120;-78
2022/01/23 05:52:07;;;;;;;41.28;23.02;;;;;;;4.40;94.79;103563.63;4771974;30;20038;-78
2022/01/23 05:54:34;;;;;;;40.00;22.73;;;;;;;4.40;94.54;103567.88;4771953;30;20028;-78
2022/01/23 05:56:59;;;;;;;35.35;21.10;;;;;;;4.41;94.69;103561.91;4771898;30;20039;-78
2022/01/23 05:59:25;;;;;;;35.78;21.65;;;;;;;4.36;94.42;103548.25;4771517;30;20039;-78
2022/01/23 06:01:56;;;;;;;35.15;21.63;;;;;;;4.39;94.51;103561.06;4771457;30;20509;-78
2022/01/23 06:04:22;;;;;;;;;;;;;;;4.48;94.64;103556.00;4771864;30;20036;-78
2022/01/23 06:06:48;;;;;;;40.05;21.13;;;;;;;4.42;94.63;103548.28;4771538;30;19925;-78
2022/01/23 06:09:14;;;;;;;35.80;21.73;;;;;;;4.44;95.08;103556.84;4770367;30;20035;-78
2022/01/23 06:11:39;;;;;;;40.42;22.13;;;;;;;4.26;94.92;103525.19;4771228;30;20035;-78
2022/01/23 06:14:09;;;;;;;38.63;21.25;;;;;;;4.24;94.94;103523.47;4771521;30;20032;-78
2022/01/23 06:16:35;;;;;;;39.00;22.27;;;;;;;4.41;95.05;103564.47;4771650;30;20042;-78
2022/01/23 06:19:00;;;;;;;38.38;22.70;;;;;;;4.41;95.16;103557.66;4771015;30;20507;-77
2022/01/23 06:21:26;;;;;;;38.47;22.02;;;;;;;4.41;95.33;103557.66;4771397;30;20035;-77
2022/01/23 06:24:03;;;;;;;39.75;22.73;;;;;;;4.40;95.05;103561.06;4771246;30;20055;-77
2022/01/23 06:26:36;;;;;;;39.50;22.10;;;;;;;4.41;95.07;103557.66;4771276;30;20035;-78
2022/01/23 06:29:04;;;;;;;37.88;22.42;;;;;;;4.40;95.00;103571.31;4770035;30;20087;-78
2022/01/23 06:31:29;;;;;;;39.33;22.88;;;;;;;4.41;95.13;103559.38;4770998;29;20063;-78
2022/01/23 06:33:55;;;;;;;39.78;23.15;;;;;;;4.41;94.98;103564.47;4771004;30;20031;-78
2022/01/23 06:36:23;;;;;;;36.97;22.42;;;;;;;4.39;95.00;103561.06;4770768;30;20050;-78
2022/01/23 06:38:48;;;;;;;39.17;22.25;;;;;;;4.36;95.29;103553.38;4771076;30;20042;-78
2022/01/23 06:41:14;;;;;;;42.55;23.20;;;;;;;4.42;95.23;103566.19;4770883;30;20036;-78
2022/01/23 06:43:39;;;;;;;37.00;22.92;;;;;;;4.23;95.45;103537.97;4979099;24;20512;-78
2022/01/23 06:46:04;;;;;;;36.53;21.50;;;;;;;4.39;95.21;103567.03;4773365;30;20043;-78
2022/01/23 06:48:30;;;;;;;39.83;22.83;;;;;;;4.41;95.35;103574.72;4788830;30;20045;-78
2022/01/23 06:50:55;;;;;;;40.47;22.95;;;;;;;4.42;95.19;103573.88;4788524;30;20031;-78
2022/01/23 06:53:20;;;;;;;39.13;23.52;;;;;;;4.35;95.00;103560.19;4787238;30;20126;-78
2022/01/23 07:22:37;;;;;;;40.83;23.55;;;;;;;4.47;95.49;103602.91;4787252;29;20043;-79
2022/01/23 07:25:14;;;;;;;42.75;24.58;;;;;;;3.45;95.15;103436.81;4787548;29;20039;-78
2022/01/23 07:27:50;;;;;;;40.85;24.02;;;;;;;4.45;95.31;103608.03;4788005;30;20036;-78
2022/01/23 07:30:33;;;;;;;39.35;23.30;;;;;;;4.36;95.28;103607.94;4788308;30;20376;-78
2022/01/23 07:32:58;;;;;;;40.80;23.50;;;;;;;4.30;95.21;103595.09;4771799;30;20042;-79
2022/01/23 07:35:23;;;;;;;40.55;23.67;;;;;;;4.46;95.21;103624.22;4787961;30;20027;-78
2022/01/23 07:37:49;;;;;;;43.42;24.52;;;;;;;4.32;95.24;103601.09;4786831;30;20062;-78
2022/01/23 07:40:14;;;;;;;42.33;23.73;;;;;;;4.35;95.25;103608.81;4787683;30;20105;-79
2022/01/23 07:42:40;;;;;;;42.30;24.02;;;;;;;4.43;95.03;103632.75;4787699;30;20058;-77
2022/01/23 07:47:43;;;;;;;40.10;23.15;;;;;;;4.11;95.25;103580.47;2198776;24;20098;-79
2022/01/23 07:53:52;;;;;;;40.47;24.02;;;;;;;4.48;95.06;103637.88;4788057;29;20069;-79
2022/01/23 09:35:46;;;;;;;44.63;26.88;;;;;;;5.40;92.43;103670.00;5067061;24;20055;-80
2022/01/23 09:38:11;;;;;;;48.65;27.55;;;;;;;5.45;91.97;103670.88;4789906;30;20492;-80
2022/01/23 09:40:40;;;;;;;46.55;28.33;;;;;;;5.46;91.96;103673.44;4789875;30;20086;-80
2022/01/23 09:43:09;;;;;;;49.10;27.63;;;;;;;5.47;91.76;103675.16;4773904;30;20042;-83
2022/01/23 09:45:34;;;;;;;49.30;28.83;;;;;;;5.44;91.45;103664.03;4789848;30;20389;-81
2022/01/23 09:48:02;;;;;;;46.78;27.52;;;;;;;5.50;91.30;103661.50;4788854;29;20084;-81
2022/01/23 09:50:29;;;;;;;49.05;28.02;;;;;;;5.64;90.94;103676.94;4789742;30;20038;-81
2022/01/23 09:52:55;;;;;;;43.47;26.55;;;;;;;5.67;90.66;103682.91;4789734;30;20396;-82
2022/01/23 09:55:28;;;;;;;46.13;27.70;;;;;;;5.70;90.40;103685.50;4790010;30;20023;-80
2022/01/23 09:57:54;;;;;;;48.55;27.70;;;;;;;5.73;90.34;103687.22;4789720;30;20100;-82
2022/01/23 10:00:24;;;;;;;46.45;28.27;;;;;;;5.76;90.28;103693.19;4789545;30;20030;-81
2022/01/23 10:02:50;;;;;;;49.35;29.27;;;;;;;5.67;90.36;103670.09;4791279;29;20557;-82
2022/01/23 10:05:20;;;;;;;48.28;28.45;;;;;;;5.74;89.57;103683.81;4807335;29;20117;-83
2022/01/23 10:07:46;;;;;;;47.50;27.08;;;;;;;5.79;89.85;103683.78;4807189;29;20049;-81
2022/01/23 10:10:18;;;;;;;50.97;29.65;;;;;;;5.67;90.06;103643.59;4807877;29;20030;-84
2022/01/23 10:12:55;;;;;;;46.42;28.60;;;;;;;5.85;89.71;103659.03;4807526;29;20041;-83
2022/01/23 10:15:21;;;;;;;48.92;28.83;;;;;;;5.97;89.11;103687.31;4805720;29;20042;-82
2022/01/23 10:17:47;;;;;;;49.67;29.27;;;;;;;5.72;89.02;103634.22;4807248;29;20144;-83
2022/01/23 10:20:14;;;;;;;47.13;28.75;;;;;;;5.97;88.79;103666.78;4807298;29;20487;-81
2022/01/23 10:22:42;;;;;;;46.83;27.85;;;;;;;6.07;88.68;103679.63;4807335;29;20480;-83
2022/01/23 10:25:17;;;;;;;48.08;29.20;;;;;;;6.16;89.08;103682.19;4807374;29;20446;-82
2022/01/23 10:27:54;;;;;;;50.45;30.15;;;;;;;6.21;88.72;103681.38;4807019;29;20111;-82
2022/01/23 10:30:24;;;;;;;48.50;27.95;;;;;;;6.22;88.59;103671.97;4807127;29;20118;-80
2022/01/23 10:33:10;;;;;;;48.55;29.48;;;;;;;6.34;88.20;103677.09;4806961;29;20039;-81
2022/01/23 10:36:02;;;;;;;48.97;28.83;;;;;;;6.42;88.53;103664.25;4806832;29;20075;-80
2022/01/23 10:38:31;;;;;;;45.90;27.67;;;;;;;6.25;87.81;103639.44;4799264;29;20137;-80
2022/01/23 10:41:24;;;;;;;48.85;27.95;;;;;;;6.37;87.31;103661.69;4814923;29;20091;-78
2022/01/23 10:49:54;;;;;;;44.45;27.20;;;;;;;6.44;86.76;103642.88;4815581;29;20077;-80
2022/01/23 10:52:33;;;;;;;53.30;28.15;;;;;;;6.65;86.87;103680.50;4815728;29;20033;-80
2022/01/23 10:55:03;;;;;;;45.80;27.20;;;;;;;6.65;86.53;103680.50;4814199;29;20182;-80
2022/01/23 10:57:40;;;;;;;47.22;28.08;;;;;;;6.48;86.69;103652.25;4817716;29;20034;-83
2022/01/23 11:00:09;;;;;;;45.83;27.70;;;;;;;6.67;86.02;103688.19;4823992;29;20044;-81
2022/01/23 11:02:39;;;;;;;49.35;28.73;;;;;;;6.69;85.83;103673.66;4824911;29;20113;-80
2022/01/23 11:05:07;;;;;;;43.13;27.65;;;;;;;6.73;86.03;103675.34;4824686;29;20494;-81
2022/01/23 11:07:34;;;;;;;47.60;29.00;;;;;;;6.74;85.72;103671.94;4824776;29;20386;-80
2022/01/23 11:10:11;;;;;;;48.13;27.98;;;;;;;6.81;86.24;103674.50;4824581;29;20026;-80
2022/01/23 11:18:10;;;;;;;45.42;29.30;;;;;;;6.79;85.58;103652.25;4824540;29;20129;-81
2022/01/23 11:20:38;;;;;;;45.63;27.63;;;;;;;6.86;85.64;103665.06;4824927;29;20041;-82
2022/01/23 11:23:23;;;;;;;48.92;28.80;;;;;;;6.69;86.18;103628.31;4824566;29;20121;-82
2022/01/23 12:02:56;;;;;;;50.78;28.27;;;;;;;6.43;85.71;103488.88;4991459;24;20047;-81
2022/01/23 12:18:33;;;;;;;45.58;26.15;;;;;;;6.25;84.67;103447.00;4732809;30;20043;-78
2022/01/23 12:21:43;;;;;;;46.05;24.65;;;;;;;6.52;84.80;103505.09;4714786;30;20056;-80
2022/01/23 12:37:58;;;;;;;42.97;24.50;;;;;;;7.26;86.02;103615.25;4680246;30;20131;-79
2022/01/23 12:41:25;;;;;;;;;;;;;;;;;;;;;
2022/01/23 12:44:40;;;;;;;44.15;25.75;;;;;;;7.31;85.90;103605.81;4645293;30;20160;-80
2022/01/23 13:01:24;;;;;;;44.03;24.58;;;;;;;7.29;86.18;103592.97;4663564;30;20200;-80
2022/01/23 13:04:01;;;;;;;40.58;24.17;;;;;;;7.09;85.21;103563.94;4677318;30;20112;-80
2022/01/23 13:06:38;;;;;;;39.28;24.13;;;;;;;7.20;85.64;103582.75;4679883;30;20257;-80
2022/01/23 13:12:13;;;;;;;44.90;26.55;;;;;;;7.17;86.03;103593.88;4645602;30;20089;-80
2022/01/23 13:32:03;;;;;;;47.15;27.30;;;;;;;6.97;85.42;103567.41;4715033;30;20513;-80
2022/01/23 13:34:32;;;;;;;48.78;29.00;;;;;;;6.96;86.00;103568.25;4717495;30;20534;-81
2022/01/23 13:37:02;;;;;;;45.95;27.60;;;;;;;7.02;86.29;103586.25;4725285;30;20449;-79
2022/01/23 13:39:36;;;;;;;45.47;27.83;;;;;;;6.93;86.30;103570.00;4723555;30;20070;-79
2022/01/23 13:48:25;;;;;;;45.45;28.00;;;;;;;7.01;86.26;103576.81;4807970;29;20514;-79
2022/01/23 13:51:13;;;;;;;52.78;29.08;;;;;;;6.97;86.10;103577.69;4807311;29;20440;-79
2022/01/23 13:59:13;;;;;;;49.72;29.58;;;;;;;6.87;86.44;103560.59;4771979;30;20090;-79
2022/01/23 14:04:18;;;;;;;48.75;29.75;;;;;;;6.79;86.74;103550.38;4771979;30;20043;-80
2022/01/23 14:06:44;;;;;;;49.85;27.90;;;;;;;6.86;86.87;103558.88;4770484;30;20481;-79
2022/01/23 14:09:12;;;;;;;45.28;28.17;;;;;;;6.91;86.74;103562.31;4772447;30;20043;-79
2022/01/23 14:11:39;;;;;;;43.28;27.25;;;;;;;6.81;86.86;103546.06;4772248;30;20027;-80
2022/01/23 14:14:20;;;;;;;53.15;29.00;;;;;;;6.87;87.00;103548.59;4771165;30;20047;-81
2022/01/23 14:19:27;;;;;;;47.53;28.55;;;;;;;6.72;86.70;103529.84;4752679;30;20123;-78
2022/01/23 14:21:56;;;;;;;49.00;28.33;;;;;;;6.80;87.05;103554.66;4760163;30;20698;-76
2022/01/23 14:24:28;;;;;;;47.40;28.48;;;;;;;6.71;87.10;103536.69;4745706;30;20085;-78
2022/01/23 14:27:06;;;;;;;48.45;28.05;;;;;;;6.85;86.96;103567.44;4770791;30;20040;-79
2022/01/23 14:29:34;;;;;;;48.72;29.98;;;;;;;6.79;86.51;103570.06;4771163;30;20031;-80
2022/01/23 14:32:33;;;;;;;55.75;31.25;;;;;;;6.54;86.68;103535.88;4771432;30;20019;-78
2022/01/23 14:44:15;;;;;;;49.72;29.80;;;;;;;6.73;87.24;103570.94;4771533;30;20490;-85
2022/01/23 14:47:14;;;;;;;49.30;29.55;;;;;;;6.73;87.16;103581.19;4771363;30;20036;-86
2022/01/23 15:03:53;;;;;;;41.47;24.35;;;;;;;6.63;86.49;103576.94;5726787;24;21364;-85
2022/01/23 15:13:12;;;;;;;38.83;22.52;;;;;;;6.53;86.70;103578.69;4792566;29;20429;-82
2022/01/23 15:23:55;;;;;;;40.00;23.75;;;;;;;6.44;86.81;103575.28;3114298;24;20327;-82
2022/01/23 15:27:24;;;;;;;37.50;23.20;;;;;;;5.24;87.08;103392.41;4801811;29;20492;-83
2022/01/23 15:29:50;;;;;;;39.58;23.05;;;;;;;5.20;86.52;103383.00;4753317;30;20563;-83
2022/01/23 15:32:45;;;;;;;39.53;23.00;;;;;;;6.37;87.00;103581.25;4768036;30;20044;-85
2022/01/23 15:42:59;;;;;;;40.75;24.75;;;;;;;5.55;87.36;103467.56;5477440;24;20063;-83
2022/01/23 15:48:46;;;;;;;40.47;23.23;;;;;;;5.09;86.95;103394.94;4978832;24;20066;-81
2022/01/23 15:51:47;;;;;;;39.38;23.77;;;;;;;5.09;87.30;103410.31;4772077;30;20130;-85
2022/01/23 15:54:53;;;;;;;41.42;24.45;;;;;;;6.12;87.63;103575.31;4788457;24;20082;-82
2022/01/23 16:04:12;;;;;;;40.08;24.77;;;;;;;6.01;88.22;103576.16;4769813;30;20070;-81
2022/01/23 16:10:30;;;;;;;40.22;23.70;;;;;;;4.72;89.22;103370.97;4787420;30;20043;-81
2022/01/23 16:13:40;;;;;;;41.50;23.95;;;;;;;5.93;88.74;103580.44;4787483;30;20035;-83
2022/01/23 16:16:24;;;;;;;38.75;23.60;;;;;;;5.92;88.85;103575.31;4745919;30;20592;-80
2022/01/23 16:19:14;;;;;;;38.72;23.27;;;;;;;5.87;88.88;103570.13;4787746;30;20104;-83
2022/01/23 16:21:54;;;;;;;39.78;24.05;;;;;;;4.68;89.28;103371.84;4788160;30;20503;-82
2022/01/23 16:38:46;;;;;;;40.88;25.42;;;;;;;5.73;89.77;103569.28;4851470;24;20528;-85
2022/01/23 16:41:40;;;;;;;47.13;25.83;;;;;;;5.71;90.06;103566.72;4787793;30;20153;-81
2022/01/23 16:44:12;;;;;;;43.20;24.90;;;;;;;5.27;90.10;103502.56;4785830;30;20456;-81
2022/01/23 16:49:37;;;;;;;44.72;26.35;;;;;;;5.69;90.11;103564.97;5039425;24;20135;-80
2022/01/23 16:55:38;;;;;;;51.28;27.60;;;;;;;5.71;90.15;103565.88;4113039;24;19926;-84
2022/01/23 17:01:51;;;;;;;44.53;27.00;;;;;;;5.66;90.01;103575.25;4790802;29;20035;-81
2022/01/23 17:25:10;;;;;;;46.58;27.02;;;;;;;4.68;91.09;103444.34;4772295;29;20055;-77
2022/01/23 17:41:53;;;;;;;46.45;27.92;;;;;;;5.01;92.12;103517.84;4674955;30;20104;-79
2022/01/23 17:44:19;;;;;;;46.60;29.27;;;;;;;4.30;92.21;103395.59;4674090;30;20212;-78
2022/01/23 17:56:47;;;;;;;50.50;30.23;;;;;;;4.25;92.43;103399.84;4685753;30;20100;-77
2022/01/23 17:59:34;;;;;;;49.28;28.77;;;;;;;5.33;92.59;103584.56;4759365;24;20152;-80
2022/01/23 18:02:13;;;;;;;54.47;32.45;;;;;;;5.26;93.00;103570.03;4820929;24;20425;-81
2022/01/23 18:04:56;;;;;;;51.40;30.48;;;;;;;5.34;93.13;103585.44;4771993;30;20481;-84
2022/01/23 18:07:24;;;;;;;60.58;32.83;;;;;;;5.20;93.06;103557.19;4755899;30;20370;-82
2022/01/23 18:09:49;;;;;;;61.38;33.75;;;;;;;5.29;93.58;103571.72;4771674;30;20414;-82
2022/01/23 18:12:14;;;;;;;61.42;34.00;;;;;;;5.12;93.53;103538.41;4755721;30;20032;-81
2022/01/23 18:15:00;;;;;;;61.33;36.08;;;;;;;4.80;93.45;103482.78;4771413;30;20480;-80
2022/01/23 18:20:48;;;;;;;63.72;35.65;;;;;;;4.28;93.26;103398.13;4771379;30;20125;-81
2022/01/23 19:10:24;;;;;;;;;;;;;;;;;;;;;
2022/01/23 19:17:53;;;;;;;73.72;39.35;;;;;;;5.32;93.78;103574.31;4788479;30;20511;-81
2022/01/23 19:24:07;;;;;;;77.78;38.63;;;;;;;5.29;93.51;103569.16;4789590;24;20070;-79
2022/01/23 19:26:35;;;;;;;72.68;37.65;;;;;;;5.28;93.72;103570.03;4769863;30;20543;-80
2022/01/23 19:29:03;;;;;;;73.10;39.30;;;;;;;5.30;93.72;103569.16;4769839;30;20531;-81
2022/01/23 19:31:30;;;;;;;68.80;38.30;;;;;;;5.26;93.98;103562.34;4788147;30;20118;-80
2022/01/23 19:33:56;;;;;;;75.78;39.25;;;;;;;5.22;93.71;103550.38;4788015;30;20036;-80
2022/01/23 19:36:21;;;;;;;73.75;39.63;;;;;;;5.26;93.56;103564.03;4787899;30;20031;-81
2022/01/23 19:38:47;;;;;;;76.80;38.97;;;;;;;5.22;93.76;103552.94;4788094;30;20039;-80
2022/01/23 19:41:17;;;;;;;75.90;39.28;;;;;;;5.13;93.75;103540.97;4787901;30;20031;-80
2022/01/23 19:46:17;;;;;;;81.15;42.58;;;;;;;5.03;93.55;103518.72;4788095;30;20047;-80
2022/01/23 19:48:50;;;;;;;82.07;43.83;;;;;;;5.09;93.73;103530.69;4787730;30;20032;-80
2022/01/23 19:51:15;;;;;;;82.20;42.30;;;;;;;4.81;93.83;103481.94;4787859;30;20038;-80
2022/01/23 19:53:41;;;;;;;81.50;41.78;;;;;;;5.14;93.95;103534.13;4787923;30;20397;-80
2022/01/23 19:56:06;;;;;;;83.22;41.63;;;;;;;5.11;93.76;103532.44;4787732;30;20478;-83
2022/01/23 19:58:32;;;;;;;85.03;43.28;;;;;;;5.10;93.99;103528.13;4787972;30;20042;-83
2022/01/23 20:00:58;;;;;;;81.25;42.97;;;;;;;5.20;94.23;103549.50;4788197;30;20598;-81
2022/01/23 20:03:24;;;;;;;80.90;41.42;;;;;;;5.12;94.28;103535.84;4788027;30;20085;-81
2022/01/23 20:05:51;;;;;;;88.03;43.45;;;;;;;5.17;94.44;103545.22;4771662;30;20484;-81
2022/01/23 20:08:20;;;;;;;90.35;43.50;;;;;;;5.17;94.26;103544.38;4787680;30;20035;-80
2022/01/23 20:13:11;;;;;;;84.30;41.83;;;;;;;4.91;94.28;103503.31;4787708;30;20032;-82
2022/01/23 20:15:39;;;;;;;87.43;42.25;;;;;;;5.07;94.37;103528.13;4787774;30;20380;-81
2022/01/23 20:18:08;;;;;;;89.13;44.78;;;;;;;4.92;94.39;103509.28;4788035;30;20027;-82
2022/01/23 20:20:34;;;;;;;85.97;42.75;;;;;;;5.00;94.55;103528.09;4787623;30;20083;-81
2022/01/23 20:23:00;;;;;;;91.00;44.70;;;;;;;4.76;94.64;103486.19;4787121;30;20043;-80
2022/01/23 20:25:25;;;;;;;85.95;43.00;;;;;;;5.07;94.52;103545.19;4803752;29;20464;-80
2022/01/23 20:27:51;;;;;;;85.05;42.40;;;;;;;4.77;94.63;103492.16;4807149;29;20039;-80
2022/01/23 20:30:19;;;;;;;85.32;43.22;;;;;;;5.07;94.88;103540.06;4805604;29;20144;-80
2022/01/23 20:32:44;;;;;;;84.63;41.10;;;;;;;5.01;94.88;103522.97;4808718;29;20034;-81
2022/01/23 20:35:30;;;;;;;81.75;42.28;;;;;;;4.77;94.89;103484.50;4809056;29;20038;-82
2022/01/23 20:38:21;;;;;;;89.15;43.03;;;;;;;5.13;94.87;103533.28;4808926;29;20031;-81
2022/01/23 20:44:23;;;;;;;85.60;42.28;;;;;;;5.11;94.83;103536.66;4809481;29;20099;-82
2022/01/23 21:08:55;;;;;;;84.95;43.45;;;;;;;4.36;95.06;103435.69;5379052;24;20416;-82
2022/01/23 21:45:10;;;;;;;85.82;44.33;;;;;;;4.96;95.99;103522.13;4789204;30;20047;-81
2022/01/23 21:47:39;;;;;;;88.55;43.17;;;;;;;3.65;95.53;103315.19;5138937;24;20067;-81
2022/01/23 21:51:12;;;;;;;96.07;45.60;;;;;;;4.97;95.91;103523.81;4782324;30;20471;-80
2022/01/23 21:53:47;;;;;;;100.40;45.70;;;;;;;3.71;95.72;103315.19;4734006;30;20052;-80
2022/01/23 21:56:30;;;;;;;95.72;45.25;;;;;;;4.96;95.96;103522.13;4734501;30;20048;-80
2022/01/23 21:59:08;;;;;;;90.90;44.45;;;;;;;4.00;96.03;103365.63;4734405;29;20041;-80
2022/01/23 22:01:40;;;;;;;93.40;46.03;;;;;;;3.84;95.77;103328.91;4734183;30;20175;-79
2022/01/23 22:04:11;;;;;;;90.97;44.22;;;;;;;3.85;95.98;103355.31;4734097;30;20052;-79
2022/01/23 22:06:48;;;;;;;91.30;45.20;;;;;;;4.51;96.11;103449.41;4734079;30;20033;-79
2022/01/23 22:09:30;;;;;;;90.85;44.08;;;;;;;4.20;96.25;103409.19;4734218;30;20040;-79
2022/01/23 22:17:26;;;;;;;90.32;43.80;;;;;;;4.87;96.47;103527.19;4734106;30;20053;-79
2022/01/23 22:19:53;;;;;;;84.57;44.38;;;;;;;4.61;95.97;103484.41;4733886;30;20044;-79
2022/01/23 22:22:26;;;;;;;91.40;45.70;;;;;;;4.75;96.12;103510.09;4733683;30;20047;-80
2022/01/23 22:27:35;;;;;;;99.22;46.13;;;;;;;4.56;96.33;103485.25;4734048;30;20067;-79
2022/01/23 22:30:03;;;;;;;94.05;45.92;;;;;;;4.73;96.26;103522.03;4743776;30;20090;-79
2022/01/23 22:32:28;;;;;;;89.10;44.75;;;;;;;4.85;96.08;103540.00;4771020;30;20032;-79
2022/01/23 22:34:56;;;;;;;91.60;45.40;;;;;;;4.85;96.01;103539.16;4771155;30;20062;-79
2022/01/23 22:37:30;;;;;;;100.38;44.92;;;;;;;4.84;96.08;103533.16;4788803;30;20027;-79
2022/01/23 22:39:56;;;;;;;89.15;43.42;;;;;;;4.64;95.92;103504.06;4788942;30;20031;-80
2022/01/23 22:42:22;;;;;;;91.50;44.97;;;;;;;4.83;96.12;103533.16;4789117;30;20043;-80
2022/01/23 22:47:40;;;;;;;90.03;42.83;;;;;;;4.71;95.72;103516.03;4751108;30;20050;-80
2022/01/23 22:50:07;;;;;;;82.90;41.17;;;;;;;4.79;95.43;103532.28;4757884;30;20047;-80
2022/01/23 22:52:32;;;;;;;88.32;43.25;;;;;;;4.73;95.79;103523.75;4768790;30;20078;-79
2022/01/23 22:54:57;;;;;;;84.07;42.15;;;;;;;4.78;95.43;103528.00;4768622;30;20453;-79
2022/01/23 22:57:23;;;;;;;84.10;41.67;;;;;;;4.67;95.45;103509.19;4768754;30;20539;-79
2022/01/23 22:59:48;;;;;;;89.95;42.58;;;;;;;4.66;95.24;103512.59;4768759;30;20063;-79
2022/01/23 23:02:19;;;;;;;85.43;41.50;;;;;;;4.75;95.35;103532.28;4768748;30;20040;-79
2022/01/23 23:04:47;;;;;;;84.30;41.42;;;;;;;4.72;95.53;103532.22;4768716;30;20044;-80
2022/01/23 23:07:12;;;;;;;88.85;42.58;;;;;;;4.61;95.44;103514.28;4768408;30;20052;-79
2022/01/23 23:09:38;;;;;;;90.13;43.78;;;;;;;4.47;95.77;103490.31;4753433;30;20469;-79
2022/01/23 23:12:04;;;;;;;82.90;40.72;;;;;;;4.67;95.50;103529.66;4768377;30;20077;-79
2022/01/23 23:14:29;;;;;;;79.80;40.80;;;;;;;4.54;95.51;103512.56;4753448;30;20039;-79
2022/01/23 23:16:58;;;;;;;88.05;41.83;;;;;;;4.65;95.47;103528.81;4768385;30;20446;-79
2022/01/23 23:19:24;;;;;;;78.13;40.05;;;;;;;4.55;95.27;103511.69;4768470;30;20039;-79